createdAt,value
2023-04-29T00:00:39.952Z,99.90
2023-04-29T00:03:06.704Z,99.90
2023-04-29T00:05:33.631Z,99.90
2023-04-29T00:08:00.479Z,99.90
2023-04-29T00:10:27.076Z,99.90
2023-04-29T00:12:54.391Z,99.90
2023-04-29T00:15:21.300Z,99.90
2023-04-29T00:17:48.285Z,99.90
2023-04-29T00:20:15.097Z,99.90
2023-04-29T00:22:41.926Z,99.90
2023-04-29T00:25:09.117Z,99.90
2023-04-29T00:27:35.721Z,99.90
2023-04-29T00:30:03.715Z,99.90
2023-04-29T00:32:30.306Z,99.90
2023-04-29T00:34:57.370Z,99.90
2023-04-29T00:37:23.990Z,99.90
2023-04-29T00:39:51.005Z,99.90
2023-04-29T00:42:18.129Z,99.90
2023-04-29T00:44:44.688Z,99.90
2023-04-29T00:47:11.617Z,99.90
2023-04-29T00:49:41.633Z,99.90
2023-04-29T00:52:08.445Z,99.90
2023-04-29T00:54:36.911Z,99.90
2023-04-29T00:57:06.711Z,99.90
2023-04-29T00:59:34.444Z,99.90
2023-04-29T01:02:10.791Z,99.90
2023-04-29T01:04:37.565Z,99.90
2023-04-29T01:07:18.977Z,99.90
2023-04-29T01:10:03.384Z,99.90
2023-04-29T01:12:38.617Z,99.90
2023-04-29T01:15:26.186Z,99.90
2023-04-29T01:18:23.199Z,99.90
2023-04-29T01:20:50.856Z,99.90
2023-04-29T01:23:17.535Z,99.90
2023-04-29T01:25:45.136Z,99.90
2023-04-29T01:28:20.684Z,99.90
2023-04-29T01:30:57.995Z,99.90
2023-04-29T01:33:40.353Z,99.90
2023-04-29T01:36:33.906Z,99.90
2023-04-29T01:39:33.462Z,99.90
2023-04-29T01:42:19.944Z,99.90
2023-04-29T01:44:48.886Z,99.90
2023-04-29T01:47:16.338Z,99.90
2023-04-29T01:49:42.986Z,99.90
2023-04-29T01:52:09.595Z,99.90
2023-04-29T01:54:36.505Z,99.90
2023-04-29T01:57:03.455Z,99.90
2023-04-29T01:59:31.721Z,99.90
2023-04-29T02:01:58.938Z,99.90
2023-04-29T02:04:25.833Z,99.90
2023-04-29T02:06:52.805Z,99.90
2023-04-29T02:09:19.419Z,99.90
2023-04-29T02:11:45.995Z,99.90
2023-04-29T02:14:12.779Z,99.90
2023-04-29T02:16:39.477Z,99.90
2023-04-29T02:19:06.115Z,99.90
2023-04-29T02:21:32.736Z,99.90
2023-04-29T02:23:59.315Z,99.90
2023-04-29T02:26:25.893Z,99.90
2023-04-29T02:28:52.593Z,99.90
2023-04-29T02:31:19.284Z,99.90
2023-04-29T02:33:45.954Z,99.90
2023-04-29T02:36:12.537Z,99.90
2023-04-29T02:38:39.142Z,99.90
2023-04-29T02:41:05.784Z,99.90
2023-04-29T02:43:32.637Z,99.90
2023-04-29T02:46:00.265Z,99.90
2023-04-29T02:48:26.972Z,99.90
2023-04-29T02:50:53.569Z,99.90
2023-04-29T02:53:20.920Z,99.90
2023-04-29T02:55:48.344Z,99.90
2023-04-29T02:58:14.934Z,99.90
2023-04-29T03:00:42.175Z,99.90
2023-04-29T03:03:09.352Z,99.90
2023-04-29T03:05:36.107Z,99.90
2023-04-29T03:08:04.092Z,99.90
2023-04-29T03:10:31.005Z,99.90
2023-04-29T03:12:57.608Z,99.90
2023-04-29T03:15:24.200Z,99.90
2023-04-29T03:17:50.880Z,99.90
2023-04-29T03:20:17.717Z,99.90
2023-04-29T03:22:44.364Z,99.90
2023-04-29T03:25:11.022Z,99.90
2023-04-29T03:27:37.571Z,99.90
2023-04-29T03:30:04.617Z,99.90
2023-04-29T03:32:31.248Z,99.90
2023-04-29T03:34:57.807Z,99.90
2023-04-29T03:37:24.417Z,99.90
2023-04-29T03:39:51.141Z,99.90
2023-04-29T03:42:17.947Z,99.90
2023-04-29T03:44:44.537Z,99.90
2023-04-29T03:47:11.228Z,99.90
2023-04-29T03:49:37.814Z,99.90
2023-04-29T03:52:04.793Z,99.90
2023-04-29T03:54:31.638Z,99.90
2023-04-29T03:56:58.202Z,99.90
2023-04-29T03:59:24.873Z,99.90
2023-04-29T04:01:54.086Z,99.90
2023-04-29T04:04:21.584Z,99.90
2023-04-29T04:06:51.717Z,99.90
2023-04-29T04:09:18.602Z,99.90
2023-04-29T04:11:45.699Z,99.90
2023-04-29T04:14:12.389Z,99.90
2023-04-29T04:16:39.023Z,99.90
2023-04-29T04:19:05.615Z,99.90
2023-04-29T04:21:32.180Z,99.90
2023-04-29T04:23:58.741Z,99.90
2023-04-29T04:26:25.379Z,99.90
2023-04-29T04:28:52.230Z,99.90
2023-04-29T04:31:18.842Z,99.90
2023-04-29T04:33:45.452Z,99.90
2023-04-29T04:36:13.399Z,99.90
2023-04-29T04:38:39.996Z,99.90
2023-04-29T04:41:08.051Z,99.90
2023-04-29T04:43:34.640Z,99.90
2023-04-29T04:46:09.409Z,99.90
2023-04-29T04:48:36.163Z,99.90
2023-04-29T04:51:13.627Z,99.90
2023-04-29T04:53:40.853Z,99.90
2023-04-29T04:56:08.302Z,99.90
2023-04-29T04:58:34.878Z,99.90
2023-04-29T05:01:01.714Z,99.90
2023-04-29T05:03:28.606Z,99.90
2023-04-29T05:05:56.827Z,99.90
2023-04-29T05:08:23.433Z,99.90
2023-04-29T05:10:50.106Z,99.90
2023-04-29T05:13:16.749Z,99.90
2023-04-29T05:15:43.830Z,99.90
2023-04-29T05:18:11.343Z,99.90
2023-04-29T05:20:38.097Z,99.90
2023-04-29T05:23:04.686Z,99.90
2023-04-29T05:25:31.534Z,99.90
2023-04-29T05:27:58.260Z,99.90
2023-04-29T05:30:24.859Z,99.90
2023-04-29T05:32:51.769Z,99.90
2023-04-29T05:35:18.373Z,99.90
2023-04-29T05:37:44.923Z,99.90
2023-04-29T05:40:11.858Z,99.90
2023-04-29T05:42:38.418Z,99.90
2023-04-29T05:45:05.385Z,99.90
2023-04-29T05:47:31.979Z,99.90
2023-04-29T05:49:58.768Z,99.90
2023-04-29T05:52:25.472Z,99.90
2023-04-29T05:54:52.062Z,99.90
2023-04-29T05:57:18.648Z,99.90
2023-04-29T05:59:45.542Z,99.90
2023-04-29T06:02:12.455Z,99.90
2023-04-29T06:04:41.446Z,99.90
2023-04-29T06:07:09.271Z,99.90
2023-04-29T06:09:36.656Z,99.90
2023-04-29T06:12:03.516Z,99.90
2023-04-29T06:14:30.328Z,99.90
2023-04-29T06:16:57.103Z,99.90
2023-04-29T06:19:25.293Z,99.90
2023-04-29T06:21:51.947Z,99.90
2023-04-29T06:24:18.529Z,99.90
2023-04-29T06:26:45.577Z,99.90
2023-04-29T06:29:12.465Z,99.90
2023-04-29T06:31:39.073Z,99.90
2023-04-29T06:34:05.866Z,99.90
2023-04-29T06:36:33.047Z,99.90
2023-04-29T06:38:59.713Z,99.90
2023-04-29T06:41:26.753Z,99.90
2023-04-29T06:43:53.349Z,99.90
2023-04-29T06:46:20.042Z,99.90
2023-04-29T06:48:46.649Z,99.90
2023-04-29T06:51:13.352Z,99.90
2023-04-29T06:53:39.965Z,99.90
2023-04-29T06:56:07.235Z,99.90
2023-04-29T06:58:40.045Z,99.90
2023-04-29T07:01:08.362Z,99.90
2023-04-29T07:03:35.085Z,99.90
2023-04-29T07:06:01.805Z,99.90
2023-04-29T07:08:28.733Z,99.90
2023-04-29T07:10:58.737Z,99.90
2023-04-29T07:13:26.077Z,99.90
2023-04-29T07:15:52.978Z,99.90
2023-04-29T07:18:19.697Z,99.90
2023-04-29T07:20:47.877Z,99.90
2023-04-29T07:23:15.248Z,99.90
2023-04-29T07:25:41.981Z,99.90
2023-04-29T07:28:09.171Z,99.90
2023-04-29T07:30:36.215Z,99.90
2023-04-29T07:33:04.285Z,99.90
2023-04-29T07:35:31.561Z,99.90
2023-04-29T07:37:58.267Z,99.90
2023-04-29T07:40:24.993Z,99.90
2023-04-29T07:42:51.738Z,99.90
2023-04-29T07:45:18.464Z,99.90
2023-04-29T07:47:45.777Z,99.90
2023-04-29T07:50:12.674Z,99.90
2023-04-29T07:52:39.305Z,99.90
2023-04-29T07:55:06.185Z,99.90
2023-04-29T07:57:32.788Z,99.90
2023-04-29T07:59:59.656Z,99.90
2023-04-29T08:02:26.420Z,99.90
2023-04-29T08:04:54.649Z,99.90
2023-04-29T08:07:21.713Z,99.90
2023-04-29T08:09:48.291Z,99.90
2023-04-29T08:12:14.894Z,99.90
2023-04-29T08:14:41.802Z,99.90
2023-04-29T08:17:08.835Z,99.90
2023-04-29T08:19:35.897Z,99.90
2023-04-29T08:22:04.261Z,99.90
2023-04-29T08:24:31.121Z,99.90
2023-04-29T08:26:59.174Z,99.90
2023-04-29T08:29:26.188Z,99.90
2023-04-29T08:31:53.052Z,99.90
2023-04-29T08:34:19.734Z,99.90
2023-04-29T08:36:46.355Z,99.90
2023-04-29T08:39:12.917Z,99.90
2023-04-29T08:41:39.588Z,99.90
2023-04-29T08:44:06.748Z,99.90
2023-04-29T08:46:33.508Z,99.90
2023-04-29T08:49:03.951Z,99.90
2023-04-29T08:51:32.464Z,99.90
2023-04-29T08:54:00.758Z,99.90
2023-04-29T08:56:28.860Z,99.90
2023-04-29T08:58:58.951Z,99.90
2023-04-29T09:01:28.959Z,99.90
2023-04-29T09:04:28.883Z,99.90
2023-04-29T09:06:59.673Z,99.90
2023-04-29T09:09:26.659Z,99.90
2023-04-29T09:11:53.466Z,99.90
2023-04-29T09:14:21.093Z,99.90
2023-04-29T09:16:48.400Z,99.90
2023-04-29T09:19:35.601Z,99.90
2023-04-29T09:22:07.942Z,99.90
2023-04-29T09:24:34.627Z,99.90
2023-04-29T09:27:03.329Z,99.90
2023-04-29T09:29:32.960Z,99.90
2023-04-29T09:31:59.724Z,99.90
2023-04-29T09:34:38.437Z,99.90
2023-04-29T09:37:27.882Z,99.90
2023-04-29T09:39:54.992Z,99.90
2023-04-29T09:42:21.636Z,99.90
2023-04-29T09:44:48.589Z,99.90
2023-04-29T09:47:15.572Z,99.90
2023-04-29T09:49:45.430Z,99.90
2023-04-29T09:52:13.992Z,99.90
2023-04-29T09:54:42.469Z,99.90
2023-04-29T09:57:11.256Z,99.90
2023-04-29T09:59:40.348Z,99.90
2023-04-29T10:02:20.919Z,99.90
2023-04-29T10:04:57.453Z,99.90
2023-04-29T10:07:28.002Z,99.90
2023-04-29T10:09:55.524Z,99.90
2023-04-29T10:12:23.882Z,99.90
2023-04-29T10:15:09.863Z,99.90
2023-04-29T10:18:14.267Z,99.90
2023-04-29T10:20:47.408Z,99.90
2023-04-29T10:23:15.292Z,99.90
2023-04-29T10:25:46.706Z,99.90
2023-04-29T10:28:16.766Z,99.90
2023-04-29T10:30:45.741Z,99.90
2023-04-29T10:33:16.406Z,99.90
2023-04-29T10:35:45.059Z,99.90
2023-04-29T10:38:20.358Z,99.90
2023-04-29T10:40:48.760Z,99.90
2023-04-29T10:43:16.150Z,99.90
2023-04-29T10:45:42.806Z,99.90
2023-04-29T10:48:12.924Z,99.90
2023-04-29T10:50:48.686Z,99.90
2023-04-29T10:53:19.557Z,99.90
2023-04-29T10:55:57.049Z,99.90
2023-04-29T10:58:46.436Z,99.90
2023-04-29T11:01:15.401Z,99.90
2023-04-29T11:04:05.617Z,99.90
2023-04-29T11:06:35.338Z,99.90
2023-04-29T11:09:14.414Z,99.90
2023-04-29T11:11:46.185Z,99.90
2023-04-29T11:14:14.149Z,99.90
2023-04-29T11:17:07.737Z,99.90
2023-04-29T11:19:36.621Z,99.90
2023-04-29T11:22:18.421Z,99.90
2023-04-29T11:24:55.678Z,99.90
2023-04-29T11:27:27.881Z,99.90
2023-04-29T11:29:58.156Z,99.90
2023-04-29T11:32:29.258Z,99.90
2023-04-29T11:34:56.586Z,99.90
2023-04-29T11:37:25.962Z,99.90
2023-04-29T11:40:00.385Z,99.90
2023-04-29T11:42:28.516Z,99.90
2023-04-29T11:45:00.401Z,99.90
2023-04-29T11:47:31.532Z,99.90
2023-04-29T11:50:12.534Z,99.90
2023-04-29T11:52:40.672Z,99.90
2023-04-29T11:55:12.026Z,99.90
2023-04-29T11:57:41.765Z,99.90
2023-04-29T12:00:13.499Z,99.90
2023-04-29T12:02:45.389Z,99.90
2023-04-29T12:05:15.742Z,99.90
2023-04-29T12:07:43.626Z,99.90
2023-04-29T12:10:11.923Z,99.90
2023-04-29T12:12:41.353Z,99.90
2023-04-29T12:15:13.695Z,99.90
2023-04-29T12:17:41.289Z,99.90
2023-04-29T12:20:12.675Z,99.90
2023-04-29T12:22:39.727Z,99.90
2023-04-29T12:25:08.016Z,99.90
2023-04-29T12:27:40.027Z,99.90
2023-04-29T12:30:09.363Z,99.90
2023-04-29T12:32:37.089Z,99.90
2023-04-29T12:35:04.031Z,99.90
2023-04-29T12:37:30.871Z,99.90
2023-04-29T12:39:57.625Z,99.90
2023-04-29T12:42:24.279Z,99.90
2023-04-29T12:44:51.000Z,99.90
2023-04-29T12:47:17.734Z,99.90
2023-04-29T12:49:49.289Z,99.90
2023-04-29T12:52:16.131Z,99.90
2023-04-29T12:54:43.662Z,99.90
2023-04-29T12:57:11.900Z,99.90
2023-04-29T12:59:39.677Z,99.90
2023-04-29T13:02:06.448Z,99.90
2023-04-29T13:04:33.299Z,99.90
2023-04-29T13:07:00.698Z,99.90
2023-04-29T13:09:27.451Z,99.90
2023-04-29T13:11:54.394Z,99.90
2023-04-29T13:14:21.405Z,99.90
2023-04-29T13:16:48.168Z,99.90
2023-04-29T13:19:32.221Z,99.90
2023-04-29T13:22:01.825Z,99.90
2023-04-29T13:24:28.405Z,99.90
2023-04-29T13:26:55.014Z,99.90
2023-04-29T13:29:21.647Z,99.90
2023-04-29T13:31:48.404Z,99.90
2023-04-29T13:34:15.108Z,99.90
2023-04-29T13:36:41.774Z,99.90
2023-04-29T13:39:08.845Z,99.90
2023-04-29T13:41:35.734Z,99.90
2023-04-29T13:44:03.060Z,99.90
2023-04-29T13:46:31.999Z,99.90
2023-04-29T13:54:48.082Z,99.90
2023-04-29T13:59:40.090Z,99.90
2023-04-29T14:04:31.473Z,99.90
2023-04-29T14:06:58.343Z,99.90
2023-04-29T14:09:25.031Z,99.90
2023-04-29T14:11:51.871Z,99.90
2023-04-29T14:14:18.435Z,99.90
2023-04-29T14:16:45.053Z,99.90
2023-04-29T14:19:11.973Z,99.90
2023-04-29T14:21:38.996Z,99.90
2023-04-29T14:24:05.839Z,99.90
2023-04-29T14:26:32.410Z,99.90
2023-04-29T14:29:00.258Z,99.90
2023-04-29T14:31:29.199Z,99.90
2023-04-29T14:33:56.831Z,99.90
2023-04-29T14:36:23.544Z,99.90
2023-04-29T14:38:50.276Z,99.90
2023-04-29T14:41:16.967Z,99.90
2023-04-29T14:43:44.351Z,99.90
2023-04-29T14:46:11.053Z,99.90
2023-04-29T14:48:37.704Z,99.90
2023-04-29T14:51:04.541Z,99.90
2023-04-29T14:53:31.113Z,99.90
2023-04-29T14:55:57.890Z,99.90
2023-04-29T14:58:24.577Z,99.90
2023-04-29T15:00:51.686Z,99.90
2023-04-29T15:03:22.570Z,99.90
2023-04-29T15:05:51.305Z,99.90
2023-04-29T15:08:19.084Z,99.90
2023-04-29T15:10:47.386Z,99.90
2023-04-29T15:13:14.098Z,99.90
2023-04-29T15:15:40.728Z,99.90
2023-04-29T15:18:08.777Z,99.90
2023-04-29T15:20:36.674Z,99.90
2023-04-29T15:23:04.149Z,99.90
2023-04-29T15:25:33.312Z,99.90
2023-04-29T15:28:00.053Z,99.90
2023-04-29T15:30:27.198Z,99.90
2023-04-29T15:32:55.545Z,99.90
2023-04-29T15:35:22.244Z,99.90
2023-04-29T15:37:49.141Z,99.90
2023-04-29T15:40:16.854Z,99.90
2023-04-29T15:42:43.463Z,99.90
2023-04-29T15:45:10.792Z,99.90
2023-04-29T15:47:37.499Z,99.90
2023-04-29T15:50:04.396Z,99.90
2023-04-29T15:52:31.053Z,99.90
2023-04-29T15:54:58.400Z,99.90
2023-04-29T15:57:25.825Z,99.90
2023-04-29T15:59:52.738Z,99.90
2023-04-29T16:02:20.363Z,99.90
2023-04-29T16:04:46.953Z,99.90
2023-04-29T16:07:13.674Z,99.90
2023-04-29T16:09:40.303Z,99.90
2023-04-29T16:12:08.043Z,99.90
2023-04-29T16:14:34.640Z,99.90
2023-04-29T16:17:01.391Z,99.90
2023-04-29T16:19:28.285Z,99.90
2023-04-29T16:21:55.516Z,99.90
2023-04-29T16:24:22.181Z,99.90
2023-04-29T16:26:50.731Z,99.90
2023-04-29T16:29:18.281Z,99.90
2023-04-29T16:31:44.983Z,99.90
2023-04-29T16:34:12.370Z,99.90
2023-04-29T16:36:39.324Z,99.90
2023-04-29T16:39:06.188Z,99.90
2023-04-29T16:41:33.016Z,99.90
2023-04-29T16:43:59.637Z,99.90
2023-04-29T16:46:26.248Z,99.90
2023-04-29T16:48:56.653Z,99.90
2023-04-29T16:51:29.114Z,99.90
2023-04-29T16:53:55.697Z,99.90
2023-04-29T16:56:22.509Z,99.90
2023-04-29T16:58:49.313Z,99.90
2023-04-29T17:01:19.102Z,99.70
2023-04-29T17:03:47.343Z,96.70
2023-04-29T17:06:15.614Z,95.90
2023-04-29T17:08:43.043Z,95.00
2023-04-29T17:11:10.358Z,93.70
2023-04-29T17:13:37.031Z,93.50
2023-04-29T17:16:04.542Z,93.70
2023-04-29T17:18:31.211Z,93.40
2023-04-29T17:20:58.117Z,93.40
2023-04-29T17:23:24.873Z,93.00
2023-04-29T17:25:51.440Z,93.10
2023-04-29T17:28:18.014Z,93.00
2023-04-29T17:30:44.602Z,93.20
2023-04-29T17:33:13.261Z,93.60
2023-04-29T17:35:40.756Z,93.20
2023-04-29T17:38:07.346Z,93.40
2023-04-29T17:40:34.166Z,93.60
2023-04-29T17:43:01.161Z,93.60
2023-04-29T17:45:27.818Z,93.70
2023-04-29T17:47:54.508Z,93.90
2023-04-29T17:50:21.280Z,93.80
2023-04-29T17:52:48.361Z,93.90
2023-04-29T17:55:14.945Z,93.80
2023-04-29T17:57:42.048Z,93.70
2023-04-29T18:00:09.671Z,93.60
2023-04-29T18:02:37.184Z,93.80
2023-04-29T18:05:04.236Z,93.70
2023-04-29T18:07:30.925Z,93.80
2023-04-29T18:09:58.085Z,94.00
2023-04-29T18:12:25.143Z,93.80
2023-04-29T18:14:52.259Z,93.90
2023-04-29T18:17:19.287Z,94.00
2023-04-29T18:19:52.349Z,94.00
2023-04-29T18:22:19.129Z,94.10
2023-04-29T18:24:46.624Z,94.50
2023-04-29T18:27:13.239Z,94.30
2023-04-29T18:29:39.838Z,94.40
2023-04-29T18:32:07.934Z,94.60
2023-04-29T18:34:35.017Z,94.70
2023-04-29T18:37:01.772Z,95.00
2023-04-29T18:39:28.405Z,95.40
2023-04-29T18:41:55.261Z,95.70
2023-04-29T18:44:21.838Z,95.90
2023-04-29T18:46:48.491Z,96.30
2023-04-29T18:49:18.283Z,96.70
2023-04-29T18:51:48.057Z,96.90
2023-04-29T18:54:15.925Z,97.00
2023-04-29T18:56:46.440Z,97.10
2023-04-29T18:59:15.790Z,96.80
2023-04-29T19:01:43.161Z,96.70
2023-04-29T19:04:10.370Z,96.60
2023-04-29T19:06:37.460Z,96.60
2023-04-29T19:09:05.533Z,96.80
2023-04-29T19:11:32.195Z,96.80
2023-04-29T19:13:58.884Z,96.90
2023-04-29T19:16:26.342Z,97.10
2023-04-29T19:18:53.214Z,97.10
2023-04-29T19:21:20.206Z,97.20
2023-04-29T19:23:47.025Z,97.30
2023-04-29T19:26:13.652Z,97.30
2023-04-29T19:28:40.464Z,97.40
2023-04-29T19:31:07.154Z,97.50
2023-04-29T19:33:33.931Z,97.90
2023-04-29T19:36:00.847Z,98.10
2023-04-29T19:38:27.686Z,98.30
2023-04-29T19:40:55.984Z,98.60
2023-04-29T19:43:23.112Z,98.80
2023-04-29T19:45:52.702Z,98.90
2023-04-29T19:48:21.190Z,98.80
2023-04-29T19:50:47.923Z,98.90
2023-04-29T19:53:14.705Z,98.90
2023-04-29T19:55:41.517Z,98.60
2023-04-29T19:58:08.200Z,98.50
2023-04-29T20:00:35.274Z,98.60
2023-04-29T20:03:02.736Z,98.60
2023-04-29T20:05:29.648Z,98.50
2023-04-29T20:07:56.303Z,98.50
2023-04-29T20:10:23.141Z,98.40
2023-04-29T20:12:49.868Z,98.50
2023-04-29T20:15:16.812Z,98.70
2023-04-29T20:17:43.691Z,98.60
2023-04-29T20:20:10.635Z,98.60
2023-04-29T20:22:37.643Z,98.90
2023-04-29T20:25:04.771Z,99.00
2023-04-29T20:27:31.379Z,99.10
2023-04-29T20:29:57.981Z,99.30
2023-04-29T20:32:24.753Z,99.30
2023-04-29T20:34:51.973Z,99.20
2023-04-29T20:37:19.801Z,99.10
2023-04-29T20:39:47.247Z,99.10
2023-04-29T20:42:14.242Z,99.20
2023-04-29T20:44:41.555Z,99.20
2023-04-29T20:47:08.601Z,99.20
2023-04-29T20:49:35.186Z,99.40
2023-04-29T20:52:02.073Z,99.40
2023-04-29T20:54:28.660Z,99.30
2023-04-29T20:56:55.245Z,99.30
2023-04-29T20:59:21.793Z,99.30
2023-04-29T21:01:48.396Z,99.40
2023-04-29T21:04:15.326Z,99.50
2023-04-29T21:06:42.025Z,99.80
2023-04-29T21:09:11.360Z,99.80
2023-04-29T21:11:37.976Z,99.90
2023-04-29T21:14:04.568Z,99.90
2023-04-29T21:16:31.186Z,99.90
2023-04-29T21:18:57.803Z,99.90
2023-04-29T21:21:25.163Z,99.90
2023-04-29T21:23:51.740Z,99.90
2023-04-29T21:26:18.444Z,99.90
2023-04-29T21:28:45.694Z,99.90
2023-04-29T21:31:16.573Z,99.90
2023-04-29T21:33:46.661Z,99.90
2023-04-29T21:36:13.776Z,99.90
2023-04-29T21:38:42.629Z,99.90
2023-04-29T21:41:23.044Z,99.90
2023-04-29T21:43:50.418Z,99.90
2023-04-29T21:46:17.532Z,99.90
2023-04-29T21:48:44.440Z,99.90
2023-04-29T21:51:11.343Z,99.90
2023-04-29T21:53:41.518Z,99.90
2023-04-29T21:56:08.127Z,99.90
2023-04-29T21:58:34.678Z,99.90
2023-04-29T22:01:03.476Z,99.90
2023-04-29T22:03:32.383Z,99.90
2023-04-29T22:05:59.036Z,99.90
2023-04-29T22:08:25.697Z,99.90
2023-04-29T22:10:52.319Z,99.90
2023-04-29T22:13:18.903Z,99.90
2023-04-29T22:15:45.498Z,99.90
2023-04-29T22:18:12.253Z,99.90
2023-04-29T22:20:38.938Z,99.90
2023-04-29T22:23:05.676Z,99.90
2023-04-29T22:25:32.361Z,99.90
2023-04-29T22:27:59.041Z,99.90
2023-04-29T22:30:25.645Z,99.90
2023-04-29T22:32:52.556Z,99.90
2023-04-29T22:35:19.282Z,99.90
2023-04-29T22:37:46.418Z,99.90
2023-04-29T22:40:13.647Z,99.90
2023-04-29T22:42:41.836Z,99.90
2023-04-29T22:45:10.118Z,99.90
2023-04-29T22:47:36.697Z,99.90
2023-04-29T22:50:03.602Z,99.90
2023-04-29T22:52:32.577Z,99.90
2023-04-29T22:54:59.752Z,99.90
2023-04-29T22:57:26.324Z,99.90
2023-04-29T22:59:56.809Z,99.90
2023-04-29T23:02:28.984Z,99.90
2023-04-29T23:04:56.475Z,99.90
2023-04-29T23:07:23.485Z,99.90
2023-04-29T23:09:50.849Z,99.90
2023-04-29T23:12:18.247Z,99.90
2023-04-29T23:14:45.657Z,99.90
2023-04-29T23:17:12.336Z,99.90
2023-04-29T23:19:38.981Z,99.90
2023-04-29T23:22:08.543Z,99.90
2023-04-29T23:24:35.573Z,99.90
2023-04-29T23:27:05.499Z,99.90
2023-04-29T23:29:33.904Z,99.90
2023-04-29T23:32:01.149Z,99.90
2023-04-29T23:34:27.766Z,99.90
2023-04-29T23:36:54.344Z,99.90
2023-04-29T23:39:20.925Z,99.90
2023-04-29T23:41:47.611Z,99.90
2023-04-29T23:44:14.200Z,99.90
2023-04-29T23:46:40.887Z,99.90
2023-04-29T23:49:07.599Z,99.90
2023-04-29T23:51:34.312Z,99.90
2023-04-29T23:54:00.834Z,99.90
2023-04-29T23:56:29.125Z,99.90
2023-04-29T23:58:55.854Z,99.90
